Time;durP1;ratioP1;P1;durP2;ratioP2;P2;SDS_P1;SDS_P2;PMS_P1;PMS_P2;Temp;Humidity;BMP_temperature;BMP_pressure;BME280_temperature;BME280_humidity;BME280_pressure;Samples;Min_cycle;Max_cycle;Signal;HPM_P1;HPM_P2
2023/10/21 00:01:00;;;;;;;25.40;17.20;;;;;;;14.06;90.27;98030.08;107486;1253;61665;-37
2023/10/21 00:03:29;;;;;;;23.10;17.60;;;;;;;14.09;90.29;98025.98;107539;1253;60324;-37
2023/10/21 00:05:57;;;;;;;26.10;20.30;;;;;;;14.12;90.28;98023.05;107533;1253;73851;-37
2023/10/21 00:08:25;;;;;;;27.70;20.40;;;;;;;14.10;90.40;98021.83;107532;1253;67581;-37
2023/10/21 00:11:03;;;;;;;25.30;19.50;;;;;;;14.07;90.46;98025.23;107503;1255;72690;-36
2023/10/21 00:13:32;;;;;;;26.90;17.60;;;;;;;14.09;90.47;98019.90;107540;1253;60419;-37
2023/10/21 00:15:59;;;;;;;24.80;17.90;;;;;;;14.13;90.31;98017.20;107570;1253;60258;-37
2023/10/21 00:18:27;;;;;;;24.70;20.10;;;;;;;14.14;90.24;98013.04;107515;1253;73891;-36
2023/10/21 00:20:55;;;;;;;26.00;20.50;;;;;;;14.12;90.21;98013.02;107554;1253;67561;-37
2023/10/21 00:23:23;;;;;;;28.60;20.60;;;;;;;14.09;90.29;98019.35;107526;1253;72621;-36
2023/10/21 00:25:50;;;;;;;28.70;18.90;;;;;;;14.10;90.19;98024.55;107521;1253;61687;-37
2023/10/21 00:28:18;;;;;;;25.90;17.90;;;;;;;14.11;90.19;98021.66;107507;1252;60397;-37
2023/10/21 00:30:47;;;;;;;23.90;18.10;;;;;;;14.15;90.23;98013.65;107510;1257;73831;-37
2023/10/21 00:33:15;;;;;;;23.70;19.10;;;;;;;14.16;89.99;98013.16;107530;1253;67641;-36
2023/10/21 00:35:45;;;;;;;23.80;18.80;;;;;;;14.15;90.17;98013.11;107500;1253;72650;-36
2023/10/21 00:38:12;;;;;;;27.00;17.50;;;;;;;14.15;90.22;98015.27;107545;1253;60843;-37
2023/10/21 00:40:55;;;;;;;25.30;17.10;;;;;;;14.21;89.93;98019.93;107504;1253;59369;-36
2023/10/21 00:43:33;;;;;;;23.30;17.70;;;;;;;14.23;89.89;98014.83;107492;1253;74100;-36
2023/10/21 00:46:26;;;;;;;24.40;17.90;;;;;;;14.23;89.98;98018.02;107525;1253;67562;-36
2023/10/21 00:48:54;;;;;;;22.90;17.20;;;;;;;14.23;90.06;98019.84;107464;1253;72682;-36
2023/10/21 00:51:22;;;;;;;25.80;17.00;;;;;;;14.26;89.88;98019.39;107496;1253;61162;-37
2023/10/21 00:53:49;;;;;;;23.40;15.80;;;;;;;14.29;89.48;98023.52;107487;1253;60483;-36
2023/10/21 00:56:17;;;;;;;21.70;16.40;;;;;;;14.33;89.38;98021.36;107531;1255;73842;-37
2023/10/21 00:58:44;;;;;;;24.80;17.90;;;;;;;14.31;89.42;98019.05;107482;1253;67660;-37
2023/10/21 01:01:13;;;;;;;27.10;16.90;;;;;;;14.30;89.45;98025.23;107504;1256;72687;-36
2023/10/21 01:03:40;;;;;;;23.60;15.40;;;;;;;14.31;89.18;98023.88;107481;1253;61713;-36
2023/10/21 01:06:08;;;;;;;18.60;15.20;;;;;;;14.37;88.89;98035.02;107471;1253;60343;-37
2023/10/21 01:08:44;;;;;;;23.60;16.10;;;;;;;14.37;88.81;98038.15;107711;1251;72658;-36
2023/10/21 01:11:12;;;;;;;26.50;16.80;;;;;;;14.35;89.09;98036.67;107751;1254;67566;-37
2023/10/21 01:13:39;;;;;;;21.80;15.90;;;;;;;14.33;88.99;98034.04;107737;1252;72653;-36
2023/10/21 01:16:07;;;;;;;20.60;15.00;;;;;;;14.36;88.86;98031.84;107693;1251;62004;-37
2023/10/21 01:18:35;;;;;;;21.80;15.30;;;;;;;14.39;88.54;98030.09;107691;1251;60308;-37
2023/10/21 01:21:03;;;;;;;26.80;17.20;;;;;;;14.42;88.55;98038.38;107418;1253;73862;-37
2023/10/21 01:23:34;;;;;;;24.10;16.70;;;;;;;14.41;88.52;98044.39;107488;1257;67559;-37
2023/10/21 01:26:02;;;;;;;20.10;15.70;;;;;;;14.39;88.50;98049.10;107465;1253;72724;-37
2023/10/21 01:28:30;;;;;;;20.60;14.60;;;;;;;14.41;88.19;98055.15;107395;1253;60658;-37
2023/10/21 01:30:57;;;;;;;25.70;15.20;;;;;;;14.42;87.91;98050.13;107472;1253;60090;-36
2023/10/21 01:33:25;;;;;;;22.20;15.30;;;;;;;14.43;87.74;98052.84;107478;1253;73707;-36
2023/10/21 01:35:53;;;;;;;20.50;15.80;;;;;;;14.42;87.65;98050.85;107507;1253;68399;-37
2023/10/21 01:38:20;;;;;;;19.30;14.40;;;;;;;14.40;87.72;98057.58;107273;1253;72706;-37
2023/10/21 01:40:49;;;;;;;21.50;15.10;;;;;;;14.38;87.58;98060.48;107435;1253;60425;-37
2023/10/21 01:43:17;;;;;;;19.80;14.70;;;;;;;14.41;87.38;98053.73;107512;1253;60367;-37
2023/10/21 01:45:44;;;;;;;22.60;14.90;;;;;;;14.42;87.40;98061.97;107439;1254;72884;-37
2023/10/21 01:48:12;;;;;;;28.90;16.50;;;;;;;14.40;87.33;98065.90;107485;1253;67579;-36
2023/10/21 01:50:40;;;;;;;21.80;16.10;;;;;;;14.36;87.48;98055.38;107270;1260;72649;-37
2023/10/21 01:53:08;;;;;;;19.70;15.10;;;;;;;14.33;87.51;98050.02;107433;1253;61656;-37
2023/10/21 01:55:36;;;;;;;21.90;14.90;;;;;;;14.29;87.22;98056.48;107501;1253;60326;-37
2023/10/21 01:58:04;;;;;;;19.20;15.10;;;;;;;14.28;87.18;98058.11;107443;1253;73820;-37
2023/10/21 02:00:33;;;;;;;22.70;16.20;;;;;;;14.29;87.44;98065.35;107482;1253;66598;-37
2023/10/21 02:03:01;;;;;;;22.20;16.60;;;;;;;14.27;87.74;98072.56;107288;1253;72733;-37
2023/10/21 02:05:29;;;;;;;22.90;17.00;;;;;;;14.25;87.67;98075.16;107277;1253;61693;-37
2023/10/21 02:07:57;;;;;;;22.60;17.50;;;;;;;14.25;87.67;98072.98;107461;1257;60817;-37
2023/10/21 02:10:25;;;;;;;19.80;15.20;;;;;;;14.25;87.63;98066.04;107448;1253;72536;-37
2023/10/21 02:12:53;;;;;;;19.60;16.20;;;;;;;14.28;87.69;98062.10;107501;1253;66633;-37
2023/10/21 02:15:20;;;;;;;22.70;16.90;;;;;;;14.30;87.76;98057.71;107480;1253;71323;-37
2023/10/21 02:17:48;;;;;;;24.90;18.00;;;;;;;14.29;87.88;98060.61;107467;1253;60376;-36
2023/10/21 02:20:17;;;;;;;22.80;16.80;;;;;;;14.27;87.93;98063.92;107440;1253;60080;-37
2023/10/21 02:22:44;;;;;;;23.40;16.60;;;;;;;14.29;87.68;98070.25;107461;1254;73876;-37
2023/10/21 02:25:12;;;;;;;20.30;16.30;;;;;;;14.31;87.41;98071.33;107309;1253;66734;-37
2023/10/21 02:27:42;;;;;;;21.90;17.30;;;;;;;14.29;87.53;98085.38;107492;1253;72699;-37
2023/10/21 02:30:13;;;;;;;25.30;16.90;;;;;;;14.25;87.65;98086.98;107460;1253;60366;-37
2023/10/21 02:32:44;;;;;;;24.20;18.10;;;;;;;14.24;87.80;98089.89;107524;1253;60887;-36
2023/10/21 02:35:13;;;;;;;24.10;17.40;;;;;;;14.28;87.60;98080.34;107521;1253;73863;-37
2023/10/21 02:37:41;;;;;;;24.10;17.70;;;;;;;14.28;87.30;98075.71;107464;1253;67580;-37
2023/10/21 02:40:10;;;;;;;24.60;18.60;;;;;;;14.25;87.48;98082.09;107300;1253;73174;-36
2023/10/21 02:42:37;;;;;;;27.40;20.20;;;;;;;14.21;87.72;98087.06;107564;1253;60326;-36
2023/10/21 02:45:06;;;;;;;22.60;17.80;;;;;;;14.19;87.86;98089.05;107544;1253;60434;-36
2023/10/21 02:47:35;;;;;;;25.50;18.30;;;;;;;14.21;87.63;98098.04;107659;1253;73830;-37
2023/10/21 02:50:04;;;;;;;25.20;20.10;;;;;;;14.24;87.61;98101.66;107594;1252;67647;-36
2023/10/21 02:52:31;;;;;;;26.40;19.20;;;;;;;14.21;87.77;98102.56;107681;1253;72766;-37
2023/10/21 02:54:59;;;;;;;24.80;19.60;;;;;;;14.18;87.89;98102.70;107620;1252;60402;-37
2023/10/21 02:57:26;;;;;;;25.80;18.30;;;;;;;14.15;87.84;98108.80;107647;1253;60583;-37
2023/10/21 02:59:54;;;;;;;25.30;19.30;;;;;;;14.17;87.64;98119.61;107589;1253;73852;-37
2023/10/21 03:02:22;;;;;;;25.70;18.80;;;;;;;14.19;87.62;98129.30;107650;1253;67882;-36
2023/10/21 03:04:50;;;;;;;26.10;18.90;;;;;;;14.16;87.87;98128.58;107530;1253;71446;-37
2023/10/21 03:07:18;;;;;;;28.00;20.00;;;;;;;14.14;88.04;98130.94;107623;1253;60400;-36
2023/10/21 03:09:45;;;;;;;27.10;18.30;;;;;;;14.13;87.98;98124.73;107466;1253;60283;-37
2023/10/21 03:12:13;;;;;;;27.50;19.20;;;;;;;14.18;87.82;98126.05;107631;1253;73880;-36
2023/10/21 03:14:40;;;;;;;27.20;19.70;;;;;;;14.20;87.69;98142.69;107454;1253;67867;-37
2023/10/21 03:17:08;;;;;;;27.00;20.90;;;;;;;14.19;87.79;98149.39;107608;1256;71390;-37
2023/10/21 03:19:35;;;;;;;30.90;21.00;;;;;;;14.16;87.78;98147.41;107617;1253;60533;-37
2023/10/21 03:22:03;;;;;;;27.60;19.60;;;;;;;14.16;87.72;98147.96;107593;1252;60364;-37
2023/10/21 03:24:31;;;;;;;24.70;19.20;;;;;;;14.18;87.47;98143.89;107637;1253;73849;-37
2023/10/21 03:26:59;;;;;;;27.30;19.90;;;;;;;14.18;87.23;98148.57;107623;1253;66497;-37
2023/10/21 03:29:27;;;;;;;29.50;22.10;;;;;;;14.17;87.06;98156.91;107496;1253;72668;-37
2023/10/21 03:31:54;;;;;;;30.20;23.10;;;;;;;14.14;87.08;98150.65;107465;1253;60525;-37
2023/10/21 03:34:22;;;;;;;32.20;23.10;;;;;;;14.10;87.23;98147.50;107588;1257;60429;-37
2023/10/21 03:36:49;;;;;;;32.90;23.60;;;;;;;14.09;87.03;98156.23;107586;1253;73851;-37
2023/10/21 03:39:18;;;;;;;33.20;24.80;;;;;;;14.10;86.91;98156.54;107459;1256;66324;-37
2023/10/21 03:41:46;;;;;;;31.70;24.90;;;;;;;14.08;86.99;98157.19;107609;1253;72319;-36
2023/10/21 03:44:14;;;;;;;46.50;25.80;;;;;;;14.04;87.07;98151.10;107583;1252;60489;-36
2023/10/21 03:46:41;;;;;;;33.30;23.60;;;;;;;14.00;87.01;98152.48;107568;1253;59693;-36
2023/10/21 03:49:09;;;;;;;27.40;22.60;;;;;;;13.98;86.97;98156.25;107495;1253;72592;-37
2023/10/21 03:51:38;;;;;;;34.10;23.20;;;;;;;13.99;86.82;98148.23;107598;1253;66445;-37
2023/10/21 03:54:06;;;;;;;32.00;23.20;;;;;;;13.99;86.90;98150.77;107449;1258;72812;-37
2023/10/21 03:56:33;;;;;;;35.50;22.70;;;;;;;13.94;86.93;98149.22;107581;1253;60408;-37
2023/10/21 03:59:01;;;;;;;28.00;21.30;;;;;;;13.89;86.99;98145.55;107627;1256;60368;-36
2023/10/21 04:01:30;;;;;;;25.30;19.60;;;;;;;13.89;86.76;98150.91;107619;1253;73900;-36
2023/10/21 04:03:57;;;;;;;37.20;20.40;;;;;;;13.91;86.50;98151.91;107534;1253;66327;-37
2023/10/21 04:06:25;;;;;;;25.80;20.90;;;;;;;13.87;86.46;98152.36;107571;1253;72820;-37
2023/10/21 04:08:53;;;;;;;33.10;21.80;;;;;;;13.83;86.76;98159.41;107597;1253;60646;-37
2023/10/21 04:11:21;;;;;;;30.00;20.70;;;;;;;13.79;86.69;98158.60;107616;1253;60346;-37
2023/10/21 04:13:48;;;;;;;21.70;19.40;;;;;;;13.81;86.57;98158.66;107606;1253;72593;-36
2023/10/21 04:16:16;;;;;;;28.00;19.00;;;;;;;13.83;86.51;98153.65;107603;1252;67709;-37
2023/10/21 04:18:44;;;;;;;30.80;21.20;;;;;;;13.82;86.55;98155.14;107575;1253;72653;-37
2023/10/21 04:21:12;;;;;;;30.00;19.00;;;;;;;13.77;86.43;98155.52;107513;1253;60311;-36
2023/10/21 04:23:40;;;;;;;23.50;18.40;;;;;;;13.73;86.51;98154.33;107623;1252;60062;-37
2023/10/21 04:26:07;;;;;;;27.80;18.90;;;;;;;13.74;86.22;98157.19;107601;1253;73842;-37
2023/10/21 04:28:35;;;;;;;24.90;18.80;;;;;;;13.75;85.92;98161.16;107630;1257;67089;-37
2023/10/21 04:31:02;;;;;;;33.10;19.40;;;;;;;13.70;86.10;98160.60;107601;1253;71473;-37
2023/10/21 04:33:30;;;;;;;28.70;18.60;;;;;;;13.66;86.21;98167.89;107590;1253;60368;-37
2023/10/21 04:35:58;;;;;;;26.20;18.80;;;;;;;13.61;86.37;98165.62;107495;1257;61256;-37
2023/10/21 04:38:25;;;;;;;23.60;16.40;;;;;;;13.62;86.16;98163.48;107489;1253;73852;-37
2023/10/21 04:40:53;;;;;;;32.70;17.30;;;;;;;13.63;86.13;98172.67;107616;1253;66411;-37
2023/10/21 04:43:21;;;;;;;28.30;16.90;;;;;;;13.61;86.27;98182.90;107538;1253;72694;-36
2023/10/21 04:45:49;;;;;;;31.50;17.70;;;;;;;13.56;86.58;98186.45;107527;1253;60277;-37
2023/10/21 04:48:16;;;;;;;21.30;14.70;;;;;;;13.53;86.76;98189.91;107628;1253;60479;-37
2023/10/21 04:50:44;;;;;;;19.50;14.70;;;;;;;13.55;86.57;98189.34;107606;1252;73854;-37
2023/10/21 04:53:12;;;;;;;16.80;13.60;;;;;;;13.53;86.43;98187.57;107640;1253;67995;-37
2023/10/21 04:55:39;;;;;;;22.00;12.90;;;;;;;13.53;86.46;98190.77;107535;1257;72654;-36
2023/10/21 04:58:07;;;;;;;18.80;14.50;;;;;;;13.53;86.42;98201.27;107630;1253;60323;-37
2023/10/21 05:00:34;;;;;;;23.60;14.20;;;;;;;13.49;86.49;98212.35;107538;1253;60441;-37
2023/10/21 05:03:02;;;;;;;14.80;12.20;;;;;;;13.47;86.57;98220.92;107608;1253;73850;-37
2023/10/21 05:05:30;;;;;;;13.40;11.20;;;;;;;13.51;86.26;98227.27;107623;1253;66649;-37
2023/10/21 05:07:57;;;;;;;14.40;11.50;;;;;;;13.52;85.90;98228.20;107631;1253;72650;-37
2023/10/21 05:10:25;;;;;;;17.70;11.30;;;;;;;13.49;85.93;98231.73;107611;1253;60287;-37
2023/10/21 05:12:55;;;;;;;15.90;11.70;;;;;;;13.42;85.94;98229.39;107635;1253;60265;-37
2023/10/21 05:15:23;;;;;;;17.30;10.80;;;;;;;13.38;86.22;98237.84;107654;1253;72668;-37
2023/10/21 05:17:51;;;;;;;13.80;11.10;;;;;;;13.38;86.18;98242.73;107535;1253;67708;-37
2023/10/21 05:20:18;;;;;;;18.20;10.20;;;;;;;13.37;86.11;98247.80;107535;1253;72649;-36
2023/10/21 05:22:46;;;;;;;11.40;10.00;;;;;;;13.34;85.83;98263.23;107607;1257;60403;-37
2023/10/21 05:25:13;;;;;;;11.10;9.40;;;;;;;13.32;85.79;98269.70;107649;1253;60002;-37
2023/10/21 05:27:41;;;;;;;23.80;10.90;;;;;;;13.28;86.02;98271.61;107618;1253;73856;-37
2023/10/21 05:30:09;;;;;;;14.90;10.60;;;;;;;13.22;86.19;98275.47;107512;1253;67911;-37
2023/10/21 05:32:37;;;;;;;11.20;10.00;;;;;;;13.20;86.47;98282.42;107576;1253;72638;-36
2023/10/21 05:35:07;;;;;;;11.20;8.30;;;;;;;13.25;86.34;98283.92;107608;1253;62169;-37
2023/10/21 05:37:35;;;;;;;14.80;7.80;;;;;;;13.29;86.14;98285.14;107681;1253;59709;-37
2023/10/21 05:40:05;;;;;;;16.60;8.40;;;;;;;13.26;86.06;98286.10;107645;1253;73854;-37
2023/10/21 05:42:33;;;;;;;14.70;8.30;;;;;;;13.20;86.04;98289.17;107628;1253;66840;-37
2023/10/21 05:45:00;;;;;;;13.00;7.30;;;;;;;13.14;86.03;98285.81;107588;1254;72524;-37
2023/10/21 05:47:28;;;;;;;9.60;6.70;;;;;;;13.14;86.02;98288.30;107596;1253;61232;-37
2023/10/21 05:49:56;;;;;;;13.30;7.80;;;;;;;13.16;85.76;98294.05;107507;1252;60302;-36
2023/10/21 05:52:23;;;;;;;8.80;7.30;;;;;;;13.14;85.91;98300.52;107578;1253;72949;-37
2023/10/21 05:54:51;;;;;;;11.20;7.50;;;;;;;13.12;86.20;98313.35;107526;1253;66293;-37
2023/10/21 05:57:19;;;;;;;11.10;7.10;;;;;;;13.11;86.29;98325.17;107623;1253;71265;-37
2023/10/21 05:59:47;;;;;;;10.80;7.00;;;;;;;13.14;86.14;98326.71;107557;1253;61711;-37
2023/10/21 06:02:14;;;;;;;11.20;7.00;;;;;;;13.16;85.91;98317.67;107615;1253;58397;-37
2023/10/21 06:04:42;;;;;;;11.00;6.60;;;;;;;13.18;85.73;98315.16;107644;1253;73853;-37
2023/10/21 06:07:09;;;;;;;13.30;7.00;;;;;;;13.16;85.59;98319.86;107630;1253;67574;-36
2023/10/21 06:09:37;;;;;;;12.50;7.30;;;;;;;13.12;85.63;98331.46;107532;1253;72730;-36
2023/10/21 06:12:05;;;;;;;13.00;6.60;;;;;;;13.09;85.58;98340.64;107542;1253;60375;-36
2023/10/21 06:14:33;;;;;;;13.20;7.40;;;;;;;13.03;85.14;98346.60;107654;1253;60396;-37
2023/10/21 06:17:01;;;;;;;10.10;6.20;;;;;;;13.00;85.21;98351.43;107614;1253;73846;-37
2023/10/21 06:19:29;;;;;;;12.90;6.30;;;;;;;13.01;85.23;98348.48;107604;1253;66295;-37
2023/10/21 06:21:58;;;;;;;8.80;6.80;;;;;;;12.98;85.02;98357.35;107617;1253;72667;-37
2023/10/21 06:24:25;;;;;;;14.80;7.00;;;;;;;12.93;85.40;98364.30;107625;1253;60398;-36
2023/10/21 06:26:53;;;;;;;7.40;6.60;;;;;;;12.89;85.55;98367.04;107476;1253;186307;-36
2023/10/21 06:30:40;;;;;;;11.10;6.50;;;;;;;12.96;85.62;98370.42;104324;1292;600921;-36
2023/10/21 06:33:09;;;;;;;9.70;7.20;;;;;;;12.91;85.17;98374.10;106625;1264;60075;-36
2023/10/21 06:35:37;;;;;;;10.40;7.10;;;;;;;12.84;85.50;98374.30;106631;1264;60005;-36
2023/10/21 06:38:06;;;;;;;8.00;6.80;;;;;;;12.84;85.78;98380.60;106724;1264;72339;-36
2023/10/21 06:40:34;;;;;;;7.30;6.60;;;;;;;12.91;85.58;98386.16;106775;1264;66415;-36
2023/10/21 06:43:23;;;;;;;8.90;6.70;;;;;;;12.92;85.29;98378.61;106502;1267;195622;-36
2023/10/21 06:45:52;;;;;;;8.10;7.30;;;;;;;12.87;85.47;98377.41;106771;1263;60066;-37
2023/10/21 06:48:21;;;;;;;7.00;6.30;;;;;;;12.84;85.54;98381.38;106834;1264;58765;-36
2023/10/21 06:50:49;;;;;;;14.20;5.90;;;;;;;12.86;85.51;98384.55;106834;1262;72202;-36
2023/10/21 06:53:16;;;;;;;13.60;6.20;;;;;;;12.90;85.10;98383.98;106826;1264;67605;-36
2023/10/21 06:55:44;;;;;;;9.40;7.10;;;;;;;12.82;84.98;98382.56;106829;1263;72703;-35
2023/10/21 06:58:12;;;;;;;9.60;6.50;;;;;;;12.78;85.38;98386.86;106822;1269;60071;-36
2023/10/21 07:00:40;;;;;;;7.00;6.30;;;;;;;12.77;85.56;98391.38;106800;1261;60018;-36
2023/10/21 07:03:08;;;;;;;8.00;5.80;;;;;;;12.81;85.83;98396.55;106839;1264;73036;-36
2023/10/21 07:05:36;;;;;;;9.40;6.20;;;;;;;12.90;85.88;98407.63;106850;1264;66331;-36
2023/10/21 07:08:05;;;;;;;7.80;6.80;;;;;;;12.95;86.02;98405.17;106786;1264;72705;-37
2023/10/21 07:10:33;;;;;;;7.10;6.30;;;;;;;12.96;86.11;98409.91;106829;1269;60116;-36
2023/10/21 07:13:01;;;;;;;7.20;6.40;;;;;;;12.98;86.24;98419.38;106847;1264;59542;-36
2023/10/21 07:15:31;;;;;;;9.40;6.40;;;;;;;13.05;86.01;98426.88;106940;1263;72908;-35
2023/10/21 07:17:59;;;;;;;7.40;6.60;;;;;;;13.13;85.87;98430.89;107325;1254;67554;-36
2023/10/21 07:20:26;;;;;;;11.40;7.10;;;;;;;13.18;85.97;98424.02;107361;1259;72658;-35
2023/10/21 07:22:54;;;;;;;8.60;7.00;;;;;;;13.22;86.14;98424.61;107388;1259;59647;-35
2023/10/21 07:25:23;;;;;;;10.00;6.50;;;;;;;13.25;85.98;98429.96;107368;1254;59225;-35
2023/10/21 07:27:51;;;;;;;8.50;6.50;;;;;;;13.32;85.66;98431.95;107355;1254;72867;-36
2023/10/21 07:30:20;;;;;;;8.80;7.00;;;;;;;13.37;84.97;98429.64;107391;1254;66572;-36
2023/10/21 07:32:47;;;;;;;8.10;7.00;;;;;;;13.34;85.05;98421.82;107353;1254;73155;-37
2023/10/21 07:35:16;;;;;;;8.30;7.40;;;;;;;13.32;85.03;98427.05;107373;1254;59586;-36
2023/10/21 07:37:47;;;;;;;12.30;6.20;;;;;;;13.26;84.64;98436.48;107356;1259;59320;-36
2023/10/21 07:40:14;;;;;;;6.70;5.80;;;;;;;13.21;84.42;98445.87;107290;1260;73158;-37
2023/10/21 07:42:42;;;;;;;7.30;5.90;;;;;;;13.21;84.38;98445.17;107322;1254;67805;-37
2023/10/21 07:45:11;;;;;;;10.30;6.00;;;;;;;13.19;84.43;98453.73;107330;1259;72435;-36
2023/10/21 07:47:39;;;;;;;8.70;6.20;;;;;;;13.17;84.62;98463.69;107363;1259;60056;-37
2023/10/21 07:50:07;;;;;;;6.80;5.80;;;;;;;13.14;84.43;98470.48;107305;1254;59384;-37
2023/10/21 07:52:35;;;;;;;6.60;5.90;;;;;;;13.15;84.35;98484.39;107357;1259;72268;-37
2023/10/21 07:55:04;;;;;;;6.50;5.50;;;;;;;13.20;83.99;98498.21;107323;1254;67576;-36
2023/10/21 07:57:31;;;;;;;6.40;5.70;;;;;;;13.20;83.70;98503.41;107312;1257;71385;-37
2023/10/21 07:59:59;;;;;;;7.90;5.90;;;;;;;13.17;83.52;98518.42;107277;1257;59877;-36
2023/10/21 08:02:30;;;;;;;7.50;5.80;;;;;;;13.12;83.40;98528.79;107497;1254;59819;-36
2023/10/21 08:04:58;;;;;;;6.90;5.50;;;;;;;13.10;83.18;98524.51;107302;1254;73053;-37
2023/10/21 08:07:25;;;;;;;6.50;5.40;;;;;;;13.12;82.85;98519.30;107332;1259;67938;-36
2023/10/21 08:09:53;;;;;;;7.10;5.80;;;;;;;13.11;82.48;98521.87;107314;1254;72703;-36
2023/10/21 08:12:20;;;;;;;8.80;6.70;;;;;;;13.02;82.64;98519.26;107326;1255;60128;-37
2023/10/21 08:14:48;;;;;;;8.10;6.40;;;;;;;12.97;82.89;98513.45;107343;1254;60102;-37
2023/10/21 08:17:15;;;;;;;8.10;6.10;;;;;;;12.94;83.12;98519.21;107322;1254;73034;-36
2023/10/21 08:19:44;;;;;;;6.60;5.90;;;;;;;12.99;83.14;98519.49;107324;1254;67550;-36
2023/10/21 08:22:11;;;;;;;11.40;7.60;;;;;;;13.05;83.46;98523.28;107324;1254;72674;-36
2023/10/21 08:24:39;;;;;;;11.10;7.40;;;;;;;13.05;83.56;98521.19;107346;1257;60088;-36
2023/10/21 08:27:07;;;;;;;8.80;7.30;;;;;;;13.01;83.74;98521.74;107347;1255;60050;-36
2023/10/21 08:29:34;;;;;;;9.60;7.40;;;;;;;13.01;84.06;98519.65;107316;1254;71846;-37
2023/10/21 08:32:02;;;;;;;12.60;9.00;;;;;;;13.08;84.24;98527.01;107490;1254;67555;-36
2023/10/21 08:34:29;;;;;;;13.20;10.80;;;;;;;13.12;83.75;98529.02;107358;1257;71395;-37
2023/10/21 08:36:57;;;;;;;11.40;8.80;;;;;;;13.08;83.82;98527.30;107250;1255;60079;-37
2023/10/21 08:39:24;;;;;;;10.80;7.90;;;;;;;13.06;84.38;98532.14;107297;1254;60238;-36
2023/10/21 08:41:53;;;;;;;12.80;8.70;;;;;;;13.09;84.61;98529.26;107318;1255;72995;-36
2023/10/21 08:44:21;;;;;;;12.70;9.40;;;;;;;13.16;84.37;98530.80;107327;1260;67598;-36
2023/10/21 08:46:49;;;;;;;12.50;10.60;;;;;;;13.18;83.62;98539.27;107258;1262;70879;-37
2023/10/21 08:49:19;;;;;;;12.30;10.10;;;;;;;13.14;83.59;98547.61;107259;1255;59821;-37
2023/10/21 08:51:47;;;;;;;14.70;10.60;;;;;;;13.13;83.89;98553.82;107354;1255;60506;-36
2023/10/21 08:54:14;;;;;;;12.90;9.70;;;;;;;13.13;83.50;98560.44;107286;1258;73160;-36
2023/10/21 08:56:42;;;;;;;13.90;9.90;;;;;;;13.13;83.07;98568.76;107225;1257;67556;-36
2023/10/21 08:59:10;;;;;;;12.10;10.00;;;;;;;13.11;82.74;98571.09;107332;1257;71441;-36
2023/10/21 09:01:38;;;;;;;13.80;10.60;;;;;;;13.00;82.78;98567.45;107272;1257;60032;-36
2023/10/21 09:04:09;;;;;;;13.10;10.10;;;;;;;12.94;83.56;98563.83;107355;1260;59487;-36
2023/10/21 09:06:52;;;;;;;11.80;10.00;;;;;;;12.95;83.73;98566.23;107172;1262;73028;-36
2023/10/21 09:09:26;;;;;;;11.10;9.40;;;;;;;12.98;83.34;98561.64;107272;1257;67921;-36
2023/10/21 09:12:11;;;;;;;13.40;9.70;;;;;;;12.98;83.16;98564.73;107274;1263;73096;-36
2023/10/21 09:15:09;;;;;;;14.10;10.30;;;;;;;12.96;83.30;98575.40;107339;1258;59605;-36
2023/10/21 09:17:44;;;;;;;14.60;11.20;;;;;;;12.90;83.35;98578.07;107233;1256;60032;-36
2023/10/21 09:20:14;;;;;;;11.10;9.30;;;;;;;12.86;83.09;98579.17;107309;1257;73082;-37
2023/10/21 09:22:49;;;;;;;12.80;10.90;;;;;;;12.87;83.15;98579.72;107304;1258;68241;-36
2023/10/21 09:25:19;;;;;;;14.50;10.90;;;;;;;12.86;83.34;98585.77;107298;1258;72692;-36
2023/10/21 09:27:54;;;;;;;16.20;12.00;;;;;;;12.88;83.85;98589.73;107337;1255;60020;-37
2023/10/21 09:30:23;;;;;;;14.20;10.10;;;;;;;12.91;83.85;98585.68;107289;1257;60006;-36
2023/10/21 09:32:51;;;;;;;12.70;10.20;;;;;;;12.95;83.53;98585.44;107355;1260;71850;-36
2023/10/21 09:35:30;;;;;;;14.10;10.40;;;;;;;13.00;83.34;98586.05;107290;1258;67627;-36
2023/10/21 09:38:16;;;;;;;12.30;9.90;;;;;;;12.98;83.17;98584.02;107301;1258;72670;-37
2023/10/21 09:40:44;;;;;;;15.00;11.40;;;;;;;12.94;83.25;98579.69;107264;1258;59613;-36
2023/10/21 09:43:12;;;;;;;11.90;9.80;;;;;;;12.92;83.05;98588.56;107286;1255;59110;-36
2023/10/21 09:45:44;;;;;;;15.70;9.30;;;;;;;12.93;83.05;98596.17;107301;1257;73009;-36
2023/10/21 09:48:13;;;;;;;13.10;9.90;;;;;;;12.97;82.96;98595.69;107153;1257;67588;-36
2023/10/21 09:50:46;;;;;;;13.40;10.00;;;;;;;12.97;82.88;98602.52;107282;1257;72817;-37
2023/10/21 09:53:15;;;;;;;14.10;10.90;;;;;;;12.91;82.72;98607.76;107341;1260;59685;-37
2023/10/21 09:55:43;;;;;;;14.80;10.50;;;;;;;12.85;82.67;98614.91;107206;1256;59599;-36
2023/10/21 09:58:12;;;;;;;13.50;11.00;;;;;;;12.83;82.45;98615.16;107058;1255;73095;-37
2023/10/21 10:00:40;;;;;;;14.00;10.60;;;;;;;12.83;82.46;98623.77;107694;1251;67561;-37
2023/10/21 10:03:08;;;;;;;15.70;12.20;;;;;;;12.83;82.68;98638.48;107547;1256;71457;-37
2023/10/21 10:05:38;;;;;;;14.40;12.50;;;;;;;12.80;82.63;98642.52;107399;1254;60428;-36
2023/10/21 10:08:06;;;;;;;17.00;13.90;;;;;;;12.79;82.71;98637.54;107651;1251;60030;-37
2023/10/21 10:10:35;;;;;;;21.20;15.70;;;;;;;12.83;82.36;98640.42;107651;1256;72742;-36
2023/10/21 10:13:11;;;;;;;20.70;13.90;;;;;;;12.86;82.32;98652.92;107686;1257;67578;-36
2023/10/21 10:15:40;;;;;;;16.40;11.20;;;;;;;12.85;82.42;98661.16;107745;1251;70698;-37
2023/10/21 10:18:18;;;;;;;13.10;11.30;;;;;;;12.83;82.27;98667.15;107715;1255;60046;-36
2023/10/21 10:20:50;;;;;;;13.20;9.80;;;;;;;12.81;82.14;98665.05;107637;1257;59522;-36
2023/10/21 10:23:19;;;;;;;12.50;9.40;;;;;;;12.78;81.82;98673.52;107699;1251;71677;-36
2023/10/21 10:25:49;;;;;;;12.30;10.60;;;;;;;12.79;81.97;98678.02;107665;1256;67591;-36
2023/10/21 10:28:21;;;;;;;13.40;10.80;;;;;;;12.81;82.35;98679.98;107782;1255;71394;-36
2023/10/21 10:30:53;;;;;;;14.10;10.90;;;;;;;12.78;81.87;98676.02;107700;1251;60068;-36
2023/10/21 10:33:38;;;;;;;13.80;10.50;;;;;;;12.71;81.79;98666.08;107735;1251;60055;-37
2023/10/21 10:36:12;;;;;;;12.20;9.90;;;;;;;12.71;81.50;98660.25;107730;1251;73039;-36
2023/10/21 10:38:46;;;;;;;12.20;10.60;;;;;;;12.70;81.32;98656.05;107663;1257;67576;-36
2023/10/21 10:41:18;;;;;;;13.80;10.50;;;;;;;12.65;81.35;98657.38;107668;1257;72703;-36
2023/10/21 10:43:50;;;;;;;15.30;10.50;;;;;;;12.57;81.40;98660.41;107673;1251;60132;-36
2023/10/21 10:46:19;;;;;;;14.50;11.00;;;;;;;12.49;81.55;98655.98;107765;1251;59659;-36
2023/10/21 10:48:48;;;;;;;12.70;9.50;;;;;;;12.47;81.51;98654.67;107719;1251;73879;-36
2023/10/21 10:51:17;;;;;;;13.90;10.20;;;;;;;12.47;81.56;98653.52;107784;1257;67927;-36
2023/10/21 10:53:47;;;;;;;12.00;9.90;;;;;;;12.43;81.60;98653.81;107705;1251;72660;-36
2023/10/21 10:56:19;;;;;;;13.10;10.40;;;;;;;12.38;82.11;98667.95;107703;1253;60411;-37
2023/10/21 10:58:47;;;;;;;15.70;9.80;;;;;;;12.35;82.36;98679.82;107717;1257;60283;-36
2023/10/21 11:01:18;;;;;;;11.90;9.80;;;;;;;12.37;82.15;98683.55;107677;1257;73869;-36
2023/10/21 11:04:06;;;;;;;12.10;10.50;;;;;;;12.36;81.90;98698.39;107687;1251;66560;-36
2023/10/21 11:06:35;;;;;;;12.10;9.90;;;;;;;12.31;82.38;98701.41;107665;1254;72761;-36
2023/10/21 11:09:23;;;;;;;13.90;10.40;;;;;;;12.27;82.36;98704.20;107673;1257;60334;-36
2023/10/21 11:11:53;;;;;;;13.20;9.80;;;;;;;12.18;82.24;98712.96;107731;1251;60431;-36
2023/10/21 11:14:37;;;;;;;9.80;8.00;;;;;;;12.15;82.25;98722.58;107697;1251;73875;-37
2023/10/21 11:17:04;;;;;;;14.00;8.50;;;;;;;12.16;82.56;98724.52;107681;1251;67548;-36
2023/10/21 11:19:32;;;;;;;14.80;9.10;;;;;;;12.14;82.80;98724.45;107708;1254;72974;-36
2023/10/21 11:22:07;;;;;;;11.90;8.70;;;;;;;12.11;83.03;98722.48;107653;1251;60434;-36
2023/10/21 11:24:35;;;;;;;9.50;8.00;;;;;;;12.10;83.04;98733.29;107681;1256;60376;-36